Time;durP1;ratioP1;P1;durP2;ratioP2;P2;SDS_P1;SDS_P2;PMS_P1;PMS_P2;Temp;Humidity;BMP_temperature;BMP_pressure;BME280_temperature;BME280_humidity;BME280_pressure;Samples;Min_cycle;Max_cycle;Signal;HPM_P1;HPM_P2
2022/04/01 00:00:24;;;;;;;5.25;1.90;;;;;;;2.61;47.27;100398.78;4993473;28;20054;-60
2022/04/01 00:02:53;;;;;;;5.75;2.25;;;;;;;2.60;46.92;100397.03;4993437;28;20042;-60
2022/04/01 00:05:22;;;;;;;6.95;2.55;;;;;;;2.60;46.49;100400.50;4993251;28;20056;-56
2022/04/01 00:07:52;;;;;;;6.78;2.40;;;;;;;2.62;45.96;100400.53;4998054;28;20371;-58
2022/04/01 00:10:23;;;;;;;10.18;3.00;;;;;;;2.62;45.22;100397.97;5013259;28;20077;-60
2022/04/01 00:12:51;;;;;;;5.32;2.53;;;;;;;2.59;44.30;100400.44;4997995;28;20046;-59
2022/04/01 00:15:22;;;;;;;5.85;2.20;;;;;;;2.54;43.92;100396.09;4992892;28;20060;-58
2022/04/01 00:20:32;;;;;;;6.47;2.75;;;;;;;2.48;43.25;100395.97;4993569;28;20050;-60
2022/04/01 00:23:03;;;;;;;4.05;2.00;;;;;;;2.44;43.34;100394.19;4993240;28;20479;-60
2022/04/01 00:25:45;;;;;;;4.93;2.22;;;;;;;2.45;42.67;100398.47;4993263;28;20403;-60
2022/04/01 00:28:12;;;;;;;6.22;2.55;;;;;;;2.45;43.12;100395.94;4993629;28;20058;-59
2022/04/01 00:30:40;;;;;;;6.50;2.60;;;;;;;2.47;43.31;100398.50;4992965;28;20058;-60
2022/04/01 00:33:09;;;;;;;7.45;2.33;;;;;;;2.47;43.14;100399.38;4992446;28;20054;-60
2022/04/01 00:35:38;;;;;;;6.15;2.25;;;;;;;2.47;43.07;100394.25;4993448;28;20054;-60
2022/04/01 00:38:11;;;;;;;4.97;2.05;;;;;;;2.45;42.68;100390.81;4993428;28;20069;-59
2022/04/01 00:40:50;;;;;;;5.70;2.00;;;;;;;2.43;42.22;100397.59;4995919;28;20058;-60
2022/04/01 00:43:29;;;;;;;4.93;2.58;;;;;;;2.40;42.18;100400.09;4996789;28;20451;-60
2022/04/01 00:45:59;;;;;;;4.80;2.15;;;;;;;2.40;42.32;100396.66;4997044;28;20055;-60
2022/04/01 00:48:28;;;;;;;5.05;2.20;;;;;;;2.41;42.16;100396.69;4996428;28;20050;-60
2022/04/01 00:51:03;;;;;;;4.45;2.00;;;;;;;2.41;42.71;100399.25;4995118;28;20101;-59
2022/04/01 00:53:40;;;;;;;6.90;2.38;;;;;;;2.40;42.02;100396.66;4996806;28;20046;-59
2022/04/01 00:56:15;;;;;;;4.60;2.08;;;;;;;2.38;42.46;100394.09;4996568;28;20737;-60
2022/04/01 00:58:46;;;;;;;4.13;1.98;;;;;;;2.39;42.28;100394.94;4996594;28;20501;-60
2022/04/01 01:01:13;;;;;;;5.68;2.38;;;;;;;2.38;41.86;100403.47;4996442;28;20058;-59
2022/04/01 01:03:42;;;;;;;6.00;2.30;;;;;;;2.36;42.10;100405.13;4996677;28;20042;-60
2022/04/01 01:08:51;;;;;;;4.38;1.77;;;;;;;2.39;42.12;100403.47;5009509;28;20058;-60
2022/04/01 01:11:22;;;;;;;3.78;2.10;;;;;;;2.41;42.02;100399.25;5013010;28;20148;-60
2022/04/01 01:13:53;;;;;;;4.68;1.80;;;;;;;2.41;41.88;100404.38;4996148;28;20058;-60
2022/04/01 01:16:21;;;;;;;4.47;1.83;;;;;;;2.43;42.32;100401.84;4996403;28;20043;-60
2022/04/01 01:19:01;;;;;;;8.52;3.10;;;;;;;2.41;42.07;100399.25;4996377;28;20050;-59
2022/04/01 01:21:31;;;;;;;8.13;2.53;;;;;;;2.38;42.33;100399.19;4996105;28;20050;-60
2022/04/01 01:24:17;;;;;;;4.32;2.25;;;;;;;2.37;41.59;100391.50;4996514;28;20137;-60
2022/04/01 01:26:57;;;;;;;9.20;3.10;;;;;;;2.36;41.88;100403.44;4995978;28;20574;-60
2022/04/01 01:29:29;;;;;;;10.45;3.58;;;;;;;2.36;42.09;100400.88;4996174;28;20177;-60
2022/04/01 01:32:00;;;;;;;8.55;3.67;;;;;;;2.36;41.87;100400.88;4979822;28;20065;-60
2022/04/01 01:34:32;;;;;;;8.77;3.50;;;;;;;2.36;41.94;100390.63;4976568;28;20464;-60
2022/04/01 01:37:10;;;;;;;7.60;2.92;;;;;;;2.36;42.01;100379.53;4976612;28;20057;-60
2022/04/01 01:39:45;;;;;;;5.97;2.25;;;;;;;2.35;41.75;100393.16;4976491;28;20125;-60
2022/04/01 01:42:21;;;;;;;6.17;2.50;;;;;;;2.33;41.72;100385.47;4978413;28;20514;-60
2022/04/01 01:44:47;;;;;;;;;;;;;;;2.31;41.29;100391.38;4996581;28;20058;-60
2022/04/01 01:47:15;;;;;;;14.40;3.10;;;;;;;2.29;41.66;100393.91;4995702;28;19937;-60
2022/04/01 01:54:42;;;;;;;5.95;2.60;;;;;;;2.26;41.70;100393.84;4995833;28;20100;-60
2022/04/01 01:55:18;;;;;;;4.18;1.98;;;;;;;2.22;41.65;100387.81;4997291;28;20352;-60
2022/04/01 01:57:52;;;;;;;5.43;1.95;;;;;;;2.21;41.93;100390.34;4994530;28;20486;-59
2022/04/01 02:00:23;;;;;;;4.25;1.65;;;;;;;2.22;42.21;100389.50;4995735;28;20057;-60
2022/04/01 02:02:53;;;;;;;4.68;1.98;;;;;;;2.22;42.01;100392.06;4995174;28;20072;-60
2022/04/01 02:05:23;;;;;;;5.15;2.00;;;;;;;2.22;41.88;100392.06;4995700;28;20089;-61
2022/04/01 02:07:53;;;;;;;6.13;1.90;;;;;;;2.24;41.92;100400.63;4994823;28;20057;-60
2022/04/01 02:10:21;;;;;;;3.75;1.88;;;;;;;2.24;42.05;100384.44;4994942;28;20050;-60
2022/04/01 02:12:52;;;;;;;4.53;1.45;;;;;;;2.24;41.87;100384.44;4980132;28;20565;-61
2022/04/01 02:15:22;;;;;;;2.13;1.40;;;;;;;2.23;42.00;100383.56;4975938;28;20061;-60
2022/04/01 02:17:50;;;;;;;5.35;1.42;;;;;;;2.22;41.93;100384.41;4989858;28;20046;-60
2022/04/01 02:20:21;;;;;;;6.03;1.45;;;;;;;2.21;42.02;100387.78;4995124;28;20057;-60
2022/04/01 02:22:52;;;;;;;4.43;1.65;;;;;;;2.21;42.16;100390.34;4995487;28;20112;-60
2022/04/01 02:25:19;;;;;;;3.40;1.38;;;;;;;2.21;42.03;100385.22;4995579;28;20051;-60
2022/04/01 02:27:46;;;;;;;2.90;1.17;;;;;;;2.19;41.91;100386.91;4982175;28;20050;-60
2022/04/01 02:30:19;;;;;;;2.00;1.15;;;;;;;2.17;41.99;100393.69;4975965;28;20054;-60
2022/04/01 02:32:48;;;;;;;5.07;1.65;;;;;;;2.17;41.94;100393.69;4975415;28;20597;-60
2022/04/01 02:35:15;;;;;;;2.85;1.23;;;;;;;2.15;42.19;100391.09;4978558;28;20085;-61
2022/04/01 02:37:47;;;;;;;3.55;1.45;;;;;;;2.15;41.81;100391.09;4995022;28;20507;-61
2022/04/01 02:40:18;;;;;;;2.35;1.48;;;;;;;2.14;41.30;100391.91;4994379;28;20065;-60
2022/04/01 02:42:53;;;;;;;5.75;2.22;;;;;;;2.12;41.37;100379.94;4995074;28;20046;-61
2022/04/01 02:45:35;;;;;;;4.93;1.60;;;;;;;2.13;40.91;100394.44;5003642;28;20046;-61
2022/04/01 02:48:14;;;;;;;15.55;2.60;;;;;;;2.12;41.13;100396.13;4994971;28;20050;-60
2022/04/01 02:50:42;;;;;;;5.75;1.58;;;;;;;2.09;41.01;100390.09;4994780;28;20078;-60
2022/04/01 02:53:18;;;;;;;3.28;1.45;;;;;;;2.08;40.98;100391.78;4995703;28;20069;-61
2022/04/01 02:55:46;;;;;;;3.55;1.50;;;;;;;2.09;41.26;100395.22;5014470;28;20112;-61
2022/04/01 02:58:16;;;;;;;4.60;1.60;;;;;;;2.09;41.14;100390.09;5000552;28;20057;-61
2022/04/01 03:00:46;;;;;;;5.15;1.58;;;;;;;2.09;41.51;100387.53;4994933;28;20058;-58
2022/04/01 03:03:16;;;;;;;5.60;1.83;;;;;;;2.09;41.81;100379.88;4993828;28;20482;-60
2022/04/01 03:05:46;;;;;;;4.40;1.60;;;;;;;2.09;41.75;100390.09;4994204;28;20054;-60
2022/04/01 03:08:17;;;;;;;3.55;1.45;;;;;;;2.08;41.81;100383.22;4994852;28;20046;-61
2022/04/01 03:10:51;;;;;;;3.58;1.00;;;;;;;2.07;42.09;100386.63;4994590;28;20050;-61
2022/04/01 03:13:18;;;;;;;5.90;1.48;;;;;;;2.05;41.99;100388.28;4994419;28;20046;-60
2022/04/01 03:15:48;;;;;;;3.35;1.48;;;;;;;2.03;41.74;100384.84;4994146;28;20065;-60
2022/04/01 03:18:18;;;;;;;2.92;1.30;;;;;;;2.00;41.39;100384.78;4993547;28;20069;-57
2022/04/01 03:20:48;;;;;;;2.80;1.20;;;;;;;1.98;41.07;100384.75;4994432;28;20050;-59
2022/04/01 03:23:16;;;;;;;5.22;0.88;;;;;;;1.96;40.71;100388.09;4993780;28;20483;-61
2022/04/01 03:25:43;;;;;;;2.35;1.38;;;;;;;1.95;40.95;100387.25;4994347;28;20061;-59
2022/04/01 03:28:11;;;;;;;3.15;1.85;;;;;;;1.95;40.89;100386.38;4994128;28;20050;-61
2022/04/01 03:30:40;;;;;;;1.77;1.10;;;;;;;1.96;41.07;100388.97;4993807;28;20368;-60
2022/04/01 03:33:17;;;;;;;2.97;1.42;;;;;;;2.00;41.28;100384.78;4993626;28;20046;-61
2022/04/01 03:35:46;;;;;;;1.98;0.90;;;;;;;2.05;41.46;100386.59;4993499;28;20050;-59
2022/04/01 03:38:18;;;;;;;4.30;1.45;;;;;;;2.09;41.60;100395.22;4993676;28;20443;-60
2022/04/01 03:40:50;;;;;;;4.72;1.30;;;;;;;2.10;42.39;100396.94;4993661;28;20097;-60
2022/04/01 03:43:23;;;;;;;4.45;1.50;;;;;;;2.10;42.91;100396.94;4993447;28;20148;-60
2022/04/01 03:46:00;;;;;;;4.38;1.58;;;;;;;2.09;43.51;100390.97;5010895;28;20052;-60
2022/04/01 03:48:35;;;;;;;5.13;2.10;;;;;;;2.09;44.27;100392.66;5013762;28;20129;-61
2022/04/01 03:51:04;;;;;;;4.63;1.52;;;;;;;2.06;44.35;100395.97;5013219;28;20050;-60
2022/04/01 03:53:35;;;;;;;8.25;2.45;;;;;;;2.02;44.66;100396.75;5007882;28;20050;-61
2022/04/01 03:56:07;;;;;;;5.32;2.38;;;;;;;1.99;44.99;100393.28;4993575;28;20066;-60
2022/04/01 03:58:44;;;;;;;6.75;1.95;;;;;;;1.96;45.01;100394.06;4993588;28;20057;-59
2022/04/01 04:01:20;;;;;;;3.33;1.30;;;;;;;1.94;45.45;100384.66;4992958;28;20341;-59
2022/04/01 04:04:03;;;;;;;;;;;;;;;1.89;45.55;100408.41;4993640;28;20090;-60
2022/04/01 04:06:34;;;;;;;7.78;1.80;;;;;;;1.88;45.33;100396.47;4993608;28;19922;-61
2022/04/01 04:09:04;;;;;;;4.60;1.30;;;;;;;1.86;45.35;100389.59;5007625;28;20050;-61
2022/04/01 04:11:40;;;;;;;5.63;1.80;;;;;;;1.85;45.56;100396.41;5008228;28;20081;-59
2022/04/01 04:14:10;;;;;;;4.80;1.35;;;;;;;1.85;45.59;100396.41;4994790;28;20122;-61
2022/04/01 04:16:45;;;;;;;5.15;1.55;;;;;;;1.85;45.19;100398.97;4997520;28;20129;-59
2022/04/01 04:19:28;;;;;;;3.25;1.27;;;;;;;1.84;45.31;100397.25;4997469;28;20054;-59
2022/04/01 04:22:07;;;;;;;3.70;1.30;;;;;;;1.82;45.25;100401.47;4997765;28;20069;-59
2022/04/01 04:24:45;;;;;;;3.53;1.38;;;;;;;1.82;45.27;100400.59;4997441;28;20160;-61
2022/04/01 04:27:17;;;;;;;4.72;1.52;;;;;;;1.81;45.23;100399.72;4997930;28;20056;-58
2022/04/01 04:29:55;;;;;;;3.20;1.50;;;;;;;1.82;45.23;100396.34;4997544;28;20069;-60
2022/04/01 04:32:34;;;;;;;6.18;1.95;;;;;;;1.83;44.98;100403.19;4997551;28;20054;-60
2022/04/01 04:35:07;;;;;;;3.15;1.38;;;;;;;1.84;45.26;100404.91;4995326;28;20050;-60
2022/04/01 04:37:39;;;;;;;7.78;1.23;;;;;;;1.86;44.90;100408.34;4997661;28;20109;-58
2022/04/01 04:40:13;;;;;;;6.28;1.42;;;;;;;1.85;44.74;100396.41;4997294;28;20094;-60
2022/04/01 04:42:46;;;;;;;4.00;1.52;;;;;;;1.86;44.78;100408.34;4997555;28;20440;-60
2022/04/01 04:45:14;;;;;;;5.45;2.03;;;;;;;1.87;44.69;100404.97;4997520;28;20058;-60
2022/04/01 04:47:50;;;;;;;12.82;2.58;;;;;;;1.87;44.68;100392.19;4997419;28;20089;-60
2022/04/01 04:50:32;;;;;;;;;;;;;;;1.89;44.27;100394.78;4997963;28;20069;-60
2022/04/01 04:53:03;;;;;;;5.20;2.08;;;;;;;1.92;44.31;100386.31;4997262;28;19922;-59
2022/04/01 04:55:41;;;;;;;6.65;1.83;;;;;;;1.93;44.18;100388.03;4997545;28;20054;-59
2022/04/01 04:58:17;;;;;;;4.85;1.80;;;;;;;1.95;44.12;100397.47;4996948;28;20065;-60
2022/04/01 05:00:53;;;;;;;9.13;2.30;;;;;;;1.98;43.99;100396.66;4997528;28;20081;-61
2022/04/01 05:03:56;;;;;;;3.07;1.10;;;;;;;2.00;43.59;100402.66;4993305;28;20053;-61
2022/04/01 05:06:30;;;;;;;3.65;1.23;;;;;;;2.04;43.63;100401.91;4995845;28;20065;-60
2022/04/01 05:09:08;;;;;;;2.97;1.27;;;;;;;2.04;43.12;100414.69;5010673;28;20344;-61
2022/04/01 05:12:12;;;;;;;2.70;1.08;;;;;;;2.06;43.14;100405.34;5011560;28;20068;-60
2022/04/01 05:15:10;;;;;;;3.55;1.67;;;;;;;2.09;43.51;100410.56;4996714;28;20419;-58
2022/04/01 05:17:47;;;;;;;4.28;1.20;;;;;;;2.12;43.48;100420.84;4996906;28;20051;-60
2022/04/01 05:20:19;;;;;;;3.15;0.90;;;;;;;2.16;43.58;100422.63;4996596;28;20054;-59
2022/04/01 05:23:06;;;;;;;4.20;1.50;;;;;;;2.21;43.67;100426.16;4995562;28;20058;-60
2022/04/01 05:25:44;;;;;;;2.65;1.10;;;;;;;2.24;43.54;100426.22;4996223;28;20054;-59
2022/04/01 05:28:22;;;;;;;3.45;1.33;;;;;;;2.27;43.46;100410.91;5008476;28;20111;-60
2022/04/01 05:30:59;;;;;;;2.08;1.33;;;;;;;2.33;43.40;100418.72;5016448;28;20053;-60
2022/04/01 05:33:28;;;;;;;2.85;0.90;;;;;;;2.36;43.21;100416.22;5016386;28;20058;-59
2022/04/01 05:36:00;;;;;;;3.45;1.20;;;;;;;2.42;43.01;100413.78;5007997;28;20061;-61
2022/04/01 05:38:35;;;;;;;5.38;1.45;;;;;;;2.46;42.58;100423.22;4996218;28;20466;-61
2022/04/01 05:41:03;;;;;;;3.60;1.27;;;;;;;2.49;42.85;100418.16;4995880;28;20055;-60
2022/04/01 05:43:33;;;;;;;11.80;1.42;;;;;;;2.53;42.01;100419.97;4996287;28;20048;-61
2022/04/01 05:46:03;;;;;;;5.05;1.55;;;;;;;2.62;42.61;100423.56;4995594;28;20097;-61
2022/04/01 05:48:36;;;;;;;4.85;1.70;;;;;;;2.71;42.68;100433.97;4979926;28;20050;-58
2022/04/01 05:51:09;;;;;;;5.15;1.50;;;;;;;2.75;42.11;100443.41;4996402;28;20134;-59
2022/04/01 05:53:41;;;;;;;4.20;1.73;;;;;;;2.81;41.91;100440.97;5001780;28;20056;-61
2022/04/01 05:56:09;;;;;;;3.38;1.30;;;;;;;2.86;42.09;100436.78;5015468;28;20050;-60
2022/04/01 05:58:43;;;;;;;11.20;2.28;;;;;;;2.91;41.92;100445.41;5015751;28;20096;-62
2022/04/01 06:01:23;;;;;;;5.15;1.70;;;;;;;2.97;42.14;100437.84;5014913;28;20053;-61
2022/04/01 06:04:14;;;;;;;5.57;2.67;;;;;;;3.05;42.26;100426.03;5003941;28;20046;-61
2022/04/01 06:06:45;;;;;;;7.47;1.80;;;;;;;3.12;42.11;100416.75;4995138;28;20050;-61
2022/04/01 06:09:34;;;;;;;1.65;0.98;;;;;;;3.16;41.74;100434.78;5011781;28;20074;-61
2022/04/01 06:12:11;;;;;;;3.67;1.45;;;;;;;3.23;41.52;100447.69;4999109;28;20047;-61
2022/04/01 06:14:48;;;;;;;4.10;1.23;;;;;;;3.25;41.68;100446.00;4976403;28;20066;-61
2022/04/01 06:17:24;;;;;;;2.88;0.93;;;;;;;3.28;42.37;100449.47;4985795;28;20117;-61
2022/04/01 06:19:59;;;;;;;3.42;1.23;;;;;;;3.33;42.06;100441.88;4992477;28;20050;-63
2022/04/01 06:22:29;;;;;;;6.55;1.55;;;;;;;3.39;41.43;100455.63;5003863;28;20450;-59
2022/04/01 06:25:16;;;;;;;7.18;1.40;;;;;;;3.42;41.81;100457.38;5000539;28;20069;-59
2022/04/01 06:27:46;;;;;;;6.35;1.33;;;;;;;3.41;41.29;100453.97;5000569;28;20583;-59
2022/04/01 06:30:17;;;;;;;3.55;1.15;;;;;;;3.48;41.89;100460.03;4992520;28;20046;-61
2022/04/01 06:33:05;;;;;;;3.53;1.30;;;;;;;3.55;40.91;100450.75;5010089;28;20081;-61
2022/04/01 06:35:44;;;;;;;3.47;1.30;;;;;;;3.55;40.22;100443.94;5000588;28;20383;-64
2022/04/01 06:38:22;;;;;;;5.80;1.20;;;;;;;3.53;40.31;100445.59;4994976;28;20050;-65
2022/04/01 06:41:09;;;;;;;3.05;1.30;;;;;;;3.57;40.65;100449.94;5008893;28;20390;-64
2022/04/01 06:43:45;;;;;;;7.38;1.08;;;;;;;3.61;40.47;100444.03;5006685;28;20064;-62
2022/04/01 06:46:16;;;;;;;5.22;1.25;;;;;;;3.63;39.84;100452.59;4998026;28;20057;-62
2022/04/01 06:48:42;;;;;;;4.55;1.42;;;;;;;3.66;40.13;100462.91;5001556;28;20466;-62
2022/04/01 06:51:11;;;;;;;3.50;1.25;;;;;;;3.69;39.52;100455.28;5002764;28;20065;-62
2022/04/01 06:53:40;;;;;;;3.28;1.30;;;;;;;3.72;40.03;100457.88;5007689;28;20127;-62
2022/04/01 06:56:13;;;;;;;69.13;4.47;;;;;;;3.79;40.37;100479.34;4997618;28;20518;-62
2022/04/01 06:58:45;;;;;;;3.78;0.93;;;;;;;3.84;39.85;100452.06;4998621;28;20064;-60
2022/04/01 07:01:21;;;;;;;11.60;3.53;;;;;;;3.86;39.60;100459.78;5008848;28;20145;-64
2022/04/01 07:03:50;;;;;;;3.88;1.08;;;;;;;3.89;39.58;100464.94;4980686;28;20159;-63
2022/04/01 07:06:21;;;;;;;51.17;4.25;;;;;;;3.90;40.18;100497.44;5010760;28;20057;-64
2022/04/01 07:08:49;;;;;;;4.85;1.17;;;;;;;3.94;39.51;100465.88;5001854;28;20078;-63
2022/04/01 07:11:24;;;;;;;7.43;1.38;;;;;;;3.94;39.18;100464.19;5001267;28;20090;-63
2022/04/01 07:14:02;;;;;;;5.57;1.42;;;;;;;3.95;38.95;100465.03;5008764;28;20050;-63
2022/04/01 07:16:32;;;;;;;14.07;2.13;;;;;;;3.98;38.31;100449.69;4995848;28;20133;-64
2022/04/01 07:19:01;;;;;;;8.10;1.23;;;;;;;4.01;38.31;100465.13;5001853;28;20054;-66
2022/04/01 07:21:31;;;;;;;3.45;0.95;;;;;;;4.02;38.19;100467.72;5003001;28;20435;-62
2022/04/01 07:24:02;;;;;;;3.28;1.30;;;;;;;4.07;38.90;100472.91;5008843;28;20050;-62
2022/04/01 07:26:38;;;;;;;10.73;2.20;;;;;;;4.13;38.92;100465.28;5010162;28;20058;-60
2022/04/01 07:29:10;;;;;;;6.13;2.25;;;;;;;4.20;38.17;100459.41;5001704;28;20443;-64
2022/04/01 07:34:37;;;;;;;5.75;1.55;;;;;;;4.35;37.33;100451.91;5010086;28;20061;-59
2022/04/01 07:37:05;;;;;;;7.13;1.70;;;;;;;4.39;38.14;100453.66;5001750;28;20109;-60
2022/04/01 07:39:33;;;;;;;10.93;2.10;;;;;;;4.41;37.50;100461.38;5001271;28;20054;-60
2022/04/01 07:42:07;;;;;;;12.05;1.30;;;;;;;4.44;37.73;100480.25;5008952;28;20046;-59
2022/04/01 07:44:37;;;;;;;8.38;1.50;;;;;;;4.46;37.14;100464.88;4983061;28;20042;-61
2022/04/01 07:47:14;;;;;;;6.40;1.52;;;;;;;4.51;37.89;100463.22;4990912;28;20493;-62
2022/04/01 07:49:43;;;;;;;6.88;1.20;;;;;;;4.51;37.78;100458.09;5006005;28;20054;-60
2022/04/01 07:52:14;;;;;;;21.48;1.40;;;;;;;4.55;37.02;100453.84;5010335;28;20060;-58
2022/04/01 07:54:51;;;;;;;12.43;2.03;;;;;;;4.55;37.09;100444.44;5004053;28;20056;-62
2022/04/01 07:57:22;;;;;;;10.15;1.83;;;;;;;4.62;37.08;100466.75;4994846;28;20050;-61
2022/04/01 07:59:52;;;;;;;5.97;1.70;;;;;;;4.65;35.94;100455.66;5007553;28;20041;-61
2022/04/01 08:02:22;;;;;;;4.43;1.52;;;;;;;4.67;36.01;100448.84;5011609;28;20046;-61
2022/04/01 08:04:53;;;;;;;10.73;1.80;;;;;;;4.65;35.89;100459.09;4984556;28;20068;-63
2022/04/01 08:07:22;;;;;;;39.30;5.55;;;;;;;4.62;35.71;100419.69;5004168;28;20098;-57
2022/04/01 08:09:58;;;;;;;18.02;2.25;;;;;;;4.62;35.07;100429.97;5000428;28;20116;-64
2022/04/01 08:12:29;;;;;;;12.85;2.13;;;;;;;4.71;35.67;100458.34;5002628;28;20069;-61
2022/04/01 08:15:00;;;;;;;3.20;1.02;;;;;;;4.77;35.15;100460.09;5006760;28;20129;-60
2022/04/01 08:17:29;;;;;;;13.48;1.30;;;;;;;4.84;35.96;100478.16;5003504;28;20159;-60
2022/04/01 08:19:58;;;;;;;28.10;3.05;;;;;;;4.89;34.97;100466.22;4980659;28;20058;-63
2022/04/01 08:22:27;;;;;;;16.63;1.95;;;;;;;4.91;34.76;100495.34;4979036;28;20063;-66
2022/04/01 08:24:54;;;;;;;5.63;2.08;;;;;;;4.88;34.30;100464.50;5000686;28;20654;-65
2022/04/01 08:27:25;;;;;;;8.23;2.35;;;;;;;4.89;34.46;100455.09;5001221;28;20050;-63
2022/04/01 08:30:09;;;;;;;13.48;2.10;;;;;;;4.91;34.58;100454.25;4990303;28;20530;-64
2022/04/01 08:32:47;;;;;;;7.97;1.92;;;;;;;4.94;34.33;100469.69;4982085;28;20041;-64
2022/04/01 08:35:24;;;;;;;4.53;1.40;;;;;;;4.94;35.14;100462.00;5000672;28;20054;-64
2022/04/01 08:37:54;;;;;;;4.38;1.73;;;;;;;4.88;33.89;100479.91;4986681;28;20065;-64
2022/04/01 08:40:29;;;;;;;25.58;2.83;;;;;;;4.87;32.98;100478.19;4982912;28;20118;-63
2022/04/01 08:43:00;;;;;;;5.07;2.17;;;;;;;4.84;33.34;100457.63;5000972;28;20152;-58
2022/04/01 08:45:36;;;;;;;5.30;1.58;;;;;;;4.80;34.13;100499.50;5003575;28;20137;-58
2022/04/01 08:48:06;;;;;;;17.65;2.45;;;;;;;4.75;34.14;100458.38;5003673;28;20053;-65
2022/04/01 08:50:35;;;;;;;10.95;1.52;;;;;;;4.76;34.19;100451.53;4993134;28;20447;-64
2022/04/01 08:53:04;;;;;;;8.95;2.97;;;;;;;4.84;34.78;100467.88;5006325;28;20050;-66
2022/04/01 08:55:32;;;;;;;6.70;1.98;;;;;;;4.88;33.79;100461.94;5001146;28;20050;-66
2022/04/01 08:58:03;;;;;;;7.35;1.35;;;;;;;4.87;34.82;100475.63;5008040;28;20461;-65
2022/04/01 09:00:43;;;;;;;10.80;2.00;;;;;;;4.86;34.76;100450.78;5012891;28;20581;-59
2022/04/01 09:03:13;;;;;;;12.98;2.53;;;;;;;4.88;34.21;100464.50;5007696;28;20054;-59
2022/04/01 09:05:46;;;;;;;10.75;1.85;;;;;;;4.80;33.87;100494.38;5008833;28;20050;-66
2022/04/01 09:08:15;;;;;;;7.22;2.15;;;;;;;4.74;34.01;100458.38;5006818;28;20056;-66
2022/04/01 09:10:58;;;;;;;18.67;2.65;;;;;;;4.79;33.22;100464.41;4998849;28;20089;-66
2022/04/01 09:13:35;;;;;;;7.13;1.35;;;;;;;4.86;33.56;100465.34;5006246;28;20448;-66
2022/04/01 09:16:05;;;;;;;3.92;1.45;;;;;;;4.93;33.96;100461.97;5000816;28;20120;-62
2022/04/01 09:18:46;;;;;;;7.05;1.73;;;;;;;5.06;33.05;100438.13;5009502;28;20042;-65
2022/04/01 09:21:14;;;;;;;18.20;2.40;;;;;;;4.99;32.41;100462.03;5007277;28;20081;-64
2022/04/01 09:23:49;;;;;;;17.42;4.03;;;;;;;4.99;31.79;100452.63;5009155;28;20061;-66
2022/04/01 09:26:21;;;;;;;13.53;2.17;;;;;;;4.98;32.56;100450.91;5000046;28;20054;-65
2022/04/01 09:28:53;;;;;;;2.88;1.27;;;;;;;4.99;32.97;100452.63;5009980;28;20297;-63
2022/04/01 09:31:25;;;;;;;16.05;2.90;;;;;;;4.95;32.40;100439.75;5006204;28;20065;-70
2022/04/01 09:33:56;;;;;;;9.15;1.83;;;;;;;5.11;32.24;100433.03;5005374;28;20061;-67
2022/04/01 09:36:29;;;;;;;4.18;1.10;;;;;;;5.07;32.17;100425.28;5004355;28;20181;-70
2022/04/01 09:39:01;;;;;;;11.43;1.70;;;;;;;5.14;31.69;100451.03;5009086;28;20067;-66
2022/04/01 09:41:33;;;;;;;7.65;1.80;;;;;;;5.11;31.60;100433.88;5004348;28;20062;-63
2022/04/01 09:44:15;;;;;;;7.78;1.48;;;;;;;5.05;31.86;100451.81;5013627;28;20057;-67
2022/04/01 09:46:48;;;;;;;5.53;2.03;;;;;;;5.05;32.59;100432.13;4991499;28;20065;-67
2022/04/01 09:49:35;;;;;;;5.00;1.38;;;;;;;5.12;31.84;100447.59;4996066;28;20054;-70
2022/04/01 09:52:04;;;;;;;9.27;1.77;;;;;;;5.16;32.25;100459.63;5011359;28;20058;-66
2022/04/01 09:54:35;;;;;;;10.07;1.42;;;;;;;5.28;32.12;100464.91;5005827;28;20372;-67
2022/04/01 09:57:06;;;;;;;7.28;1.45;;;;;;;5.33;32.05;100428.09;4990578;28;20069;-66
2022/04/01 09:59:34;;;;;;;3.17;1.23;;;;;;;5.17;31.93;100448.50;4998995;28;20372;-68
2022/04/01 10:02:10;;;;;;;5.07;1.40;;;;;;;5.14;32.18;100451.03;5000345;28;20060;-64
2022/04/01 10:04:46;;;;;;;15.55;2.50;;;;;;;5.05;31.75;100446.69;4993867;28;20145;-64
2022/04/01 10:07:24;;;;;;;4.63;1.10;;;;;;;5.14;32.38;100443.34;5010455;28;20046;-65
2022/04/01 10:09:59;;;;;;;5.03;1.27;;;;;;;5.15;33.08;100438.19;4999071;28;20492;-65
2022/04/01 10:12:31;;;;;;;3.35;0.80;;;;;;;5.35;32.26;100425.53;5002394;28;20058;-65
2022/04/01 10:15:07;;;;;;;6.10;1.25;;;;;;;5.53;32.38;100435.97;5006813;28;20065;-65
2022/04/01 10:17:51;;;;;;;6.45;1.17;;;;;;;5.69;31.94;100427.50;4994031;28;20062;-65
2022/04/01 10:20:21;;;;;;;6.10;1.20;;;;;;;5.93;32.30;100420.84;5010213;28;20141;-65
2022/04/01 10:22:51;;;;;;;18.95;1.98;;;;;;;6.10;32.21;100424.34;4998773;28;20046;-65
2022/04/01 10:25:28;;;;;;;25.95;2.13;;;;;;;6.14;30.91;100431.22;4994373;28;20517;-65
2022/04/01 10:28:02;;;;;;;8.05;1.63;;;;;;;6.08;30.88;100433.78;5009925;28;20136;-65
2022/04/01 10:30:40;;;;;;;12.63;2.42;;;;;;;6.13;31.18;100419.22;5000542;28;20050;-65
2022/04/01 10:33:26;;;;;;;6.05;1.20;;;;;;;5.95;31.05;100427.72;5003842;28;20062;-65
2022/04/01 10:35:56;;;;;;;3.67;1.10;;;;;;;5.85;31.86;100396.75;4993844;28;20073;-65
2022/04/01 10:38:30;;;;;;;6.60;1.30;;;;;;;5.87;32.68;100425.91;5006856;28;20055;-64
2022/04/01 10:41:12;;;;;;;15.07;1.75;;;;;;;5.81;31.36;100420.72;4990480;28;20084;-69
2022/04/01 10:44:00;;;;;;;6.80;1.58;;;;;;;5.66;32.94;100411.19;4992541;28;20090;-69
2022/04/01 10:46:31;;;;;;;11.32;1.23;;;;;;;5.80;34.62;100424.16;5000509;28;20057;-69
2022/04/01 10:52:14;;;;;;;6.53;1.05;;;;;;;6.13;36.32;100408.91;4999442;28;20073;-69
2022/04/01 10:54:49;;;;;;;7.03;1.20;;;;;;;6.21;35.22;100422.69;4994153;28;20454;-69
2022/04/01 10:57:27;;;;;;;3.88;1.25;;;;;;;6.15;35.44;100385.75;5000241;28;20050;-69
2022/04/01 11:00:07;;;;;;;16.80;1.55;;;;;;;6.06;35.78;100427.75;4998443;28;20056;-69
2022/04/01 11:02:36;;;;;;;5.85;1.00;;;;;;;5.87;36.26;100420.78;4986542;28;20053;-68
2022/04/01 11:05:27;;;;;;;5.95;1.10;;;;;;;5.92;36.33;100409.69;4993461;28;20050;-69
2022/04/01 11:08:25;;;;;;;4.50;1.00;;;;;;;6.09;36.77;100404.63;5005639;28;20442;-69
2022/04/01 11:11:10;;;;;;;3.95;1.05;;;;;;;6.12;36.79;100401.19;4974671;28;20109;-68
2022/04/01 11:13:42;;;;;;;10.43;1.40;;;;;;;6.11;36.46;100410.63;4991776;28;20054;-68
2022/04/01 11:16:18;;;;;;;5.05;0.90;;;;;;;6.16;36.13;100418.38;4994016;28;20054;-68
2022/04/01 11:19:15;;;;;;;7.68;1.55;;;;;;;6.09;36.02;100417.47;4998939;28;20050;-64
2022/04/01 11:21:49;;;;;;;7.57;1.70;;;;;;;5.89;36.34;100416.50;4997806;28;20058;-63
2022/04/01 11:24:52;;;;;;;7.47;1.60;;;;;;;5.92;35.80;100393.38;4987041;28;20042;-61
2022/04/01 11:27:27;;;;;;;4.95;0.85;;;;;;;6.12;35.67;100407.19;5000190;28;20053;-63
2022/04/01 11:30:08;;;;;;;19.13;1.70;;;;;;;6.15;34.94;100419.22;4998648;28;20130;-64
2022/04/01 11:32:38;;;;;;;8.45;1.30;;;;;;;5.95;35.92;100399.41;4980741;28;20050;-61
2022/04/01 11:35:09;;;;;;;12.60;1.98;;;;;;;5.84;35.79;100410.47;5004087;28;20491;-63
2022/04/01 11:37:44;;;;;;;4.35;0.95;;;;;;;5.77;35.08;100413.84;5005065;28;20717;-65
2022/04/01 11:40:17;;;;;;;3.13;0.82;;;;;;;5.66;35.85;100426.63;5009820;28;20481;-62
2022/04/01 11:43:02;;;;;;;17.73;1.70;;;;;;;5.37;35.22;100422.13;4999340;28;20053;-63
2022/04/01 11:45:39;;;;;;;9.52;1.20;;;;;;;5.27;35.55;100406.63;5004039;28;20053;-63
2022/04/01 11:48:15;;;;;;;7.03;1.55;;;;;;;5.17;35.31;100399.69;5009766;28;20056;-64
2022/04/01 11:50:44;;;;;;;10.52;2.75;;;;;;;5.30;35.21;100398.94;4996555;28;20043;-62
2022/04/01 11:53:21;;;;;;;6.32;1.20;;;;;;;5.55;36.98;100405.97;4996026;28;20054;-63
2022/04/01 11:55:51;;;;;;;6.00;1.42;;;;;;;5.43;36.55;100405.91;4999916;28;20050;-62
2022/04/01 11:58:20;;;;;;;5.70;0.93;;;;;;;5.66;37.83;100408.63;5009923;28;20053;-62
2022/04/01 12:00:49;;;;;;;4.38;1.10;;;;;;;5.74;37.24;100398.41;4998800;28;20053;-63
2022/04/01 12:03:26;;;;;;;9.35;1.25;;;;;;;5.68;37.73;100389.78;5003877;28;20058;-64
2022/04/01 12:08:41;;;;;;;5.18;1.73;;;;;;;5.72;38.13;100380.34;5007457;28;20096;-65
2022/04/01 12:08:46;;;;;;;12.50;1.75;;;;;;;5.43;38.46;100407.59;4992502;28;20125;-65
2022/04/01 12:11:15;;;;;;;7.10;1.20;;;;;;;5.71;38.59;100404.34;5000459;28;20049;-64
2022/04/01 12:13:50;;;;;;;5.95;1.55;;;;;;;5.78;37.85;100405.28;5006178;28;20068;-60
2022/04/01 12:16:24;;;;;;;8.18;1.58;;;;;;;5.67;38.13;100398.34;4993864;28;20128;-63